<?xml version="1.0" encoding="UTF-8" standalone="no" ?><gpx xmlns="http://www.topografix.com/GPX/1/1" xmlns:gpxx="http://www.garmin.com/xmlschemas/GpxExtensions/v3" xmlns:wptx1="http://www.garmin.com/xmlschemas/WaypointExtension/v1" xmlns:gpxtpx="http://www.garmin.com/xmlschemas/TrackPointExtension/v1" creator="Dakota 20" version="1.1" xmlns:xsi="http://www.w3.org/2001/XMLSchema-instance" xsi:schemaLocation="http://www.topografix.com/GPX/1/1 http://www.topografix.com/GPX/1/1/gpx.xsd http://www.garmin.com/xmlschemas/GpxExtensions/v3 http://www8.garmin.com/xmlschemas/GpxExtensionsv3.xsd http://www.garmin.com/xmlschemas/WaypointExtension/v1 http://www8.garmin.com/xmlschemas/WaypointExtensionv1.xsd http://www.garmin.com/xmlschemas/TrackPointExtension/v1 http://www.garmin.com/xmlschemas/TrackPointExtensionv1.xsd"><metadata><link href="http://www.garmin.com"><text>Garmin International</text></link><time>2015-01-07T14:47:29Z</time></metadata><trk><name>Current Track: 07 JAN 2015 09:59</name><extensions><gpxx:TrackExtension><gpxx:DisplayColor>Cyan</gpxx:DisplayColor></gpxx:TrackExtension></extensions><trkseg><trkpt lat="51.7586478777" lon="-1.8391772266"><ele>122.71</ele><time>2015-01-07T09:59:14Z</time></trkpt><trkpt lat="51.7586439382" lon="-1.8391840998"><ele>124.63</ele><time>2015-01-07T09:59:23Z</time></trkpt><trkpt lat="51.7587070540" lon="-1.8392873649"><ele>124.15</ele><time>2015-01-07T09:59:36Z</time></trkpt><trkpt lat="51.7587631289" lon="-1.8393762968"><ele>124.15</ele><time>2015-01-07T09:59:51Z</time></trkpt><trkpt lat="51.7588528153" lon="-1.8393453676"><ele>122.71</ele><time>2015-01-07T10:00:07Z</time></trkpt><trkpt lat="51.7589003406" lon="-1.8392465450"><ele>122.22</ele><time>2015-01-07T10:00:20Z</time></trkpt><trkpt lat="51.7589696590" lon="-1.8390691839"><ele>120.78</ele><time>2015-01-07T10:00:36Z</time></trkpt><trkpt lat="51.7590693198" lon="-1.8388331495"><ele>120.78</ele><time>2015-01-07T10:00:52Z</time></trkpt><trkpt lat="51.7590464372" lon="-1.8386595603"><ele>119.82</ele><time>2015-01-07T10:01:02Z</time></trkpt><trkpt lat="51.7589856684" lon="-1.8383630924"><ele>120.30</ele><time>2015-01-07T10:01:16Z</time></trkpt><trkpt lat="51.7588953115" lon="-1.8381844740"><ele>121.74</ele><time>2015-01-07T10:01:30Z</time></trkpt><trkpt lat="51.7588653043" lon="-1.8380897585"><ele>121.74</ele><time>2015-01-07T10:01:36Z</time></trkpt><trkpt lat="51.7588197067" lon="-1.8378616031"><ele>123.67</ele><time>2015-01-07T10:01:50Z</time></trkpt><trkpt lat="51.7587477900" lon="-1.8376744352"><ele>125.11</ele><time>2015-01-07T10:02:05Z</time></trkpt><trkpt lat="51.7586704250" lon="-1.8374212179"><ele>126.07</ele><time>2015-01-07T10:02:22Z</time></trkpt><trkpt lat="51.7586084828" lon="-1.8372546695"><ele>127.51</ele><time>2015-01-07T10:02:34Z</time></trkpt><trkpt lat="51.7585455347" lon="-1.8370516598"><ele>127.99</ele><time>2015-01-07T10:02:48Z</time></trkpt><trkpt lat="51.7585347220" lon="-1.8369878735"><ele>127.99</ele><time>2015-01-07T10:02:52Z</time></trkpt><trkpt lat="51.7585270107" lon="-1.8367792480"><ele>127.51</ele><time>2015-01-07T10:03:06Z</time></trkpt><trkpt lat="51.7586229835" lon="-1.8365042377"><ele>124.63</ele><time>2015-01-07T10:03:25Z</time></trkpt><trkpt lat="51.7586777173" lon="-1.8361876532"><ele>121.26</ele><time>2015-01-07T10:03:46Z</time></trkpt><trkpt lat="51.7586941458" lon="-1.8359301612"><ele>119.34</ele><time>2015-01-07T10:04:04Z</time></trkpt><trkpt lat="51.7586791422" lon="-1.8357852381"><ele>116.94</ele><time>2015-01-07T10:04:19Z</time></trkpt><trkpt lat="51.7586331256" lon="-1.8355004210"><ele>114.05</ele><time>2015-01-07T10:04:36Z</time></trkpt><trkpt lat="51.7586202174" lon="-1.8353523128"><ele>113.09</ele><time>2015-01-07T10:04:53Z</time></trkpt><trkpt lat="51.7585944012" lon="-1.8353556655"><ele>112.61</ele><time>2015-01-07T10:05:14Z</time></trkpt><trkpt lat="51.7585881986" lon="-1.8352708407"><ele>111.65</ele><time>2015-01-07T10:05:31Z</time></trkpt><trkpt lat="51.7585713509" lon="-1.8350681663"><ele>110.21</ele><time>2015-01-07T10:05:42Z</time></trkpt><trkpt lat="51.7585493904" lon="-1.8349891249"><ele>109.73</ele><time>2015-01-07T10:05:46Z</time></trkpt><trkpt lat="51.7585376557" lon="-1.8347477261"><ele>109.25</ele><time>2015-01-07T10:06:03Z</time></trkpt><trkpt lat="51.7585544195" lon="-1.8347118516"><ele>109.25</ele><time>2015-01-07T10:06:06Z</time></trkpt><trkpt lat="51.7585761286" lon="-1.8344445527"><ele>109.73</ele><time>2015-01-07T10:06:22Z</time></trkpt><trkpt lat="51.7585595325" lon="-1.8342298921"><ele>110.21</ele><time>2015-01-07T10:06:36Z</time></trkpt><trkpt lat="51.7585696746" lon="-1.8340324145"><ele>110.21</ele><time>2015-01-07T10:06:49Z</time></trkpt><trkpt lat="51.7585950717" lon="-1.8339192588"><ele>110.21</ele><time>2015-01-07T10:07:06Z</time></trkpt><trkpt lat="51.7586428486" lon="-1.8338035885"><ele>110.69</ele><time>2015-01-07T10:07:24Z</time></trkpt><trkpt lat="51.7586757056" lon="-1.8337381259"><ele>110.69</ele><time>2015-01-07T10:07:41Z</time></trkpt><trkpt lat="51.7587083951" lon="-1.8336590007"><ele>110.69</ele><time>2015-01-07T10:07:58Z</time></trkpt><trkpt lat="51.7587182857" lon="-1.8334571645"><ele>110.21</ele><time>2015-01-07T10:08:11Z</time></trkpt><trkpt lat="51.7586487997" lon="-1.8333699927"><ele>110.21</ele><time>2015-01-07T10:08:25Z</time></trkpt><trkpt lat="51.7585054692" lon="-1.8332322780"><ele>110.21</ele><time>2015-01-07T10:08:43Z</time></trkpt><trkpt lat="51.7584552616" lon="-1.8332090601"><ele>110.21</ele><time>2015-01-07T10:08:56Z</time></trkpt><trkpt lat="51.7584257573" lon="-1.8331904523"><ele>110.21</ele><time>2015-01-07T10:08:58Z</time></trkpt><trkpt lat="51.7583791539" lon="-1.8331457768"><ele>110.21</ele><time>2015-01-07T10:09:01Z</time></trkpt><trkpt lat="51.7582309619" lon="-1.8329624645"><ele>111.17</ele><time>2015-01-07T10:09:18Z</time></trkpt><trkpt lat="51.7582173832" lon="-1.8329292722"><ele>110.69</ele><time>2015-01-07T10:09:20Z</time></trkpt><trkpt lat="51.7581102625" lon="-1.8327227421"><ele>111.17</ele><time>2015-01-07T10:09:36Z</time></trkpt><trkpt lat="51.7580805905" lon="-1.8324910663"><ele>112.61</ele><time>2015-01-07T10:09:52Z</time></trkpt><trkpt lat="51.7580561154" lon="-1.8322471529"><ele>112.61</ele><time>2015-01-07T10:10:08Z</time></trkpt><trkpt lat="51.7580602225" lon="-1.8320969492"><ele>114.05</ele><time>2015-01-07T10:10:17Z</time></trkpt><trkpt lat="51.7581108492" lon="-1.8318791874"><ele>114.53</ele><time>2015-01-07T10:10:31Z</time></trkpt><trkpt lat="51.7581735458" lon="-1.8317020778"><ele>114.05</ele><time>2015-01-07T10:10:45Z</time></trkpt><trkpt lat="51.7582859471" lon="-1.8314578291"><ele>115.01</ele><time>2015-01-07T10:11:02Z</time></trkpt><trkpt lat="51.7583171278" lon="-1.8313767761"><ele>115.98</ele><time>2015-01-07T10:11:08Z</time></trkpt><trkpt lat="51.7584115919" lon="-1.8312444258"><ele>116.46</ele><time>2015-01-07T10:11:23Z</time></trkpt><trkpt lat="51.7585579399" lon="-1.8311255705"><ele>116.94</ele><time>2015-01-07T10:11:39Z</time></trkpt><trkpt lat="51.7587078083" lon="-1.8309787195"><ele>117.90</ele><time>2015-01-07T10:11:57Z</time></trkpt><trkpt lat="51.7587944772" lon="-1.8307940662"><ele>118.38</ele><time>2015-01-07T10:12:10Z</time></trkpt><trkpt lat="51.7588780448" lon="-1.8306638952"><ele>119.34</ele><time>2015-01-07T10:12:22Z</time></trkpt><trkpt lat="51.7590199504" lon="-1.8305013701"><ele>119.34</ele><time>2015-01-07T10:12:38Z</time></trkpt><trkpt lat="51.7591647059" lon="-1.8303999491"><ele>120.78</ele><time>2015-01-07T10:12:56Z</time></trkpt><trkpt lat="51.7593147419" lon="-1.8304033857"><ele>122.71</ele><time>2015-01-07T10:13:12Z</time></trkpt><trkpt lat="51.7594587430" lon="-1.8304224126"><ele>123.67</ele><time>2015-01-07T10:13:24Z</time></trkpt><trkpt lat="51.7595888302" lon="-1.8304534256"><ele>125.59</ele><time>2015-01-07T10:13:38Z</time></trkpt><trkpt lat="51.7597254552" lon="-1.8304850254"><ele>127.03</ele><time>2015-01-07T10:13:52Z</time></trkpt><trkpt lat="51.7598373536" lon="-1.8305660784"><ele>128.47</ele><time>2015-01-07T10:14:11Z</time></trkpt><trkpt lat="51.7599280458" lon="-1.8306273501"><ele>129.43</ele><time>2015-01-07T10:14:27Z</time></trkpt><trkpt lat="51.7600879725" lon="-1.8307428528"><ele>132.80</ele><time>2015-01-07T10:14:43Z</time></trkpt><trkpt lat="51.7601928301" lon="-1.8308445252"><ele>134.72</ele><time>2015-01-07T10:14:53Z</time></trkpt><trkpt lat="51.7603125237" lon="-1.8311032746"><ele>136.64</ele><time>2015-01-07T10:15:07Z</time></trkpt><trkpt lat="51.7603371665" lon="-1.8313348666"><ele>136.64</ele><time>2015-01-07T10:15:20Z</time></trkpt><trkpt lat="51.7603966780" lon="-1.8315579090"><ele>137.13</ele><time>2015-01-07T10:15:34Z</time></trkpt><trkpt lat="51.7604314629" lon="-1.8315853179"><ele>138.57</ele><time>2015-01-07T10:15:49Z</time></trkpt><trkpt lat="51.7604831792" lon="-1.8315800373"><ele>138.09</ele><time>2015-01-07T10:16:07Z</time></trkpt><trkpt lat="51.7605928984" lon="-1.8315429054"><ele>140.01</ele><time>2015-01-07T10:16:30Z</time></trkpt><trkpt lat="51.7607431859" lon="-1.8315015826"><ele>140.97</ele><time>2015-01-07T10:16:46Z</time></trkpt><trkpt lat="51.7609233968" lon="-1.8314050231"><ele>142.89</ele><time>2015-01-07T10:17:06Z</time></trkpt><trkpt lat="51.7610564176" lon="-1.8313135765"><ele>144.82</ele><time>2015-01-07T10:17:25Z</time></trkpt><trkpt lat="51.7611348722" lon="-1.8312938791"><ele>144.82</ele><time>2015-01-07T10:17:34Z</time></trkpt><trkpt lat="51.7613129038" lon="-1.8312238902"><ele>146.74</ele><time>2015-01-07T10:17:53Z</time></trkpt><trkpt lat="51.7614905164" lon="-1.8311770353"><ele>146.74</ele><time>2015-01-07T10:18:12Z</time></trkpt><trkpt lat="51.7616755888" lon="-1.8311114889"><ele>148.66</ele><time>2015-01-07T10:18:32Z</time></trkpt><trkpt lat="51.7618247867" lon="-1.8310680706"><ele>149.14</ele><time>2015-01-07T10:18:50Z</time></trkpt><trkpt lat="51.7619611602" lon="-1.8310259935"><ele>150.58</ele><time>2015-01-07T10:19:05Z</time></trkpt><trkpt lat="51.7620765790" lon="-1.8309750315"><ele>150.58</ele><time>2015-01-07T10:19:17Z</time></trkpt><trkpt lat="51.7621495854" lon="-1.8309373129"><ele>150.58</ele><time>2015-01-07T10:19:25Z</time></trkpt><trkpt lat="51.7623561155" lon="-1.8308295216"><ele>152.51</ele><time>2015-01-07T10:19:46Z</time></trkpt><trkpt lat="51.7625086661" lon="-1.8307329621"><ele>153.47</ele><time>2015-01-07T10:20:02Z</time></trkpt><trkpt lat="51.7626136076" lon="-1.8306665774"><ele>152.99</ele><time>2015-01-07T10:20:16Z</time></trkpt><trkpt lat="51.7627505679" lon="-1.8305715267"><ele>153.95</ele><time>2015-01-07T10:20:33Z</time></trkpt><trkpt lat="51.7628933955" lon="-1.8304829299"><ele>154.43</ele><time>2015-01-07T10:20:48Z</time></trkpt><trkpt lat="51.7630353011" lon="-1.8304038048"><ele>154.43</ele><time>2015-01-07T10:21:03Z</time></trkpt><trkpt lat="51.7631930485" lon="-1.8302785791"><ele>154.91</ele><time>2015-01-07T10:21:21Z</time></trkpt><trkpt lat="51.7633814737" lon="-1.8301612325"><ele>155.39</ele><time>2015-01-07T10:21:41Z</time></trkpt><trkpt lat="51.7635319289" lon="-1.8300663494"><ele>155.87</ele><time>2015-01-07T10:21:56Z</time></trkpt><trkpt lat="51.7636741698" lon="-1.8299722206"><ele>155.87</ele><time>2015-01-07T10:22:10Z</time></trkpt><trkpt lat="51.7638052627" lon="-1.8298858870"><ele>155.87</ele><time>2015-01-07T10:22:23Z</time></trkpt><trkpt lat="51.7639594898" lon="-1.8297965359"><ele>156.35</ele><time>2015-01-07T10:22:39Z</time></trkpt><trkpt lat="51.7640974559" lon="-1.8297036644"><ele>156.35</ele><time>2015-01-07T10:22:53Z</time></trkpt><trkpt lat="51.7642580532" lon="-1.8296205997"><ele>156.35</ele><time>2015-01-07T10:23:10Z</time></trkpt><trkpt lat="51.7642859649" lon="-1.8295971304"><ele>156.83</ele><time>2015-01-07T10:23:13Z</time></trkpt><trkpt lat="51.7643293831" lon="-1.8295699731"><ele>155.87</ele><time>2015-01-07T10:23:17Z</time></trkpt><trkpt lat="51.7645104323" lon="-1.8294528779"><ele>156.35</ele><time>2015-01-07T10:23:35Z</time></trkpt><trkpt lat="51.7646740470" lon="-1.8293193541"><ele>156.83</ele><time>2015-01-07T10:23:53Z</time></trkpt><trkpt lat="51.7648329679" lon="-1.8292028457"><ele>156.83</ele><time>2015-01-07T10:24:12Z</time></trkpt><trkpt lat="51.7648442835" lon="-1.8291963078"><ele>156.35</ele><time>2015-01-07T10:24:14Z</time></trkpt><trkpt lat="51.7648742907" lon="-1.8291683123"><ele>156.83</ele><time>2015-01-07T10:24:17Z</time></trkpt><trkpt lat="51.7650044616" lon="-1.8290556595"><ele>156.83</ele><time>2015-01-07T10:24:33Z</time></trkpt><trkpt lat="51.7651416734" lon="-1.8289186154"><ele>156.35</ele><time>2015-01-07T10:24:50Z</time></trkpt><trkpt lat="51.7652720120" lon="-1.8287931383"><ele>156.35</ele><time>2015-01-07T10:25:06Z</time></trkpt><trkpt lat="51.7654080503" lon="-1.8286765460"><ele>156.83</ele><time>2015-01-07T10:25:22Z</time></trkpt><trkpt lat="51.7655409034" lon="-1.8285248335"><ele>156.35</ele><time>2015-01-07T10:25:39Z</time></trkpt><trkpt lat="51.7656492814" lon="-1.8283899687"><ele>156.35</ele><time>2015-01-07T10:25:55Z</time></trkpt><trkpt lat="51.7657873314" lon="-1.8282558583"><ele>155.87</ele><time>2015-01-07T10:26:13Z</time></trkpt><trkpt lat="51.7659566458" lon="-1.8281192333"><ele>155.39</ele><time>2015-01-07T10:26:33Z</time></trkpt><trkpt lat="51.7660567258" lon="-1.8280307204"><ele>154.91</ele><time>2015-01-07T10:26:46Z</time></trkpt><trkpt lat="51.7662236933" lon="-1.8279004656"><ele>154.43</ele><time>2015-01-07T10:27:05Z</time></trkpt><trkpt lat="51.7663731426" lon="-1.8277752399"><ele>153.47</ele><time>2015-01-07T10:27:22Z</time></trkpt><trkpt lat="51.7665624898" lon="-1.8276304845"><ele>152.99</ele><time>2015-01-07T10:27:42Z</time></trkpt><trkpt lat="51.7667254340" lon="-1.8274897523"><ele>152.51</ele><time>2015-01-07T10:28:00Z</time></trkpt><trkpt lat="51.7668623943" lon="-1.8273783568"><ele>151.54</ele><time>2015-01-07T10:28:16Z</time></trkpt><trkpt lat="51.7669364903" lon="-1.8273190968"><ele>151.54</ele><time>2015-01-07T10:28:29Z</time></trkpt><trkpt lat="51.7669772264" lon="-1.8272916880"><ele>151.54</ele><time>2015-01-07T10:28:43Z</time></trkpt><trkpt lat="51.7669792380" lon="-1.8272900954"><ele>151.54</ele><time>2015-01-07T10:29:04Z</time></trkpt><trkpt lat="51.7669841833" lon="-1.8272859883"><ele>152.03</ele><time>2015-01-07T10:29:26Z</time></trkpt><trkpt lat="51.7669928167" lon="-1.8272771034"><ele>152.03</ele><time>2015-01-07T10:29:47Z</time></trkpt><trkpt lat="51.7669997737" lon="-1.8272642791"><ele>151.54</ele><time>2015-01-07T10:30:09Z</time></trkpt><trkpt lat="51.7670277692" lon="-1.8272214476"><ele>151.54</ele><time>2015-01-07T10:30:27Z</time></trkpt><trkpt lat="51.7671490554" lon="-1.8271597568"><ele>151.06</ele><time>2015-01-07T10:30:43Z</time></trkpt><trkpt lat="51.7673566751" lon="-1.8271090463"><ele>149.62</ele><time>2015-01-07T10:31:03Z</time></trkpt><trkpt lat="51.7675072979" lon="-1.8269711640"><ele>148.18</ele><time>2015-01-07T10:31:21Z</time></trkpt><trkpt lat="51.7676750198" lon="-1.8268150929"><ele>147.22</ele><time>2015-01-07T10:31:40Z</time></trkpt><trkpt lat="51.7678382993" lon="-1.8266542442"><ele>146.26</ele><time>2015-01-07T10:31:57Z</time></trkpt><trkpt lat="51.7680254672" lon="-1.8264747038"><ele>145.78</ele><time>2015-01-07T10:32:17Z</time></trkpt><trkpt lat="51.7681882437" lon="-1.8263310380"><ele>145.30</ele><time>2015-01-07T10:32:34Z</time></trkpt><trkpt lat="51.7683638446" lon="-1.8261795770"><ele>145.30</ele><time>2015-01-07T10:32:52Z</time></trkpt><trkpt lat="51.7684976198" lon="-1.8260682654"><ele>145.30</ele><time>2015-01-07T10:33:06Z</time></trkpt><trkpt lat="51.7686109431" lon="-1.8259334844"><ele>145.78</ele><time>2015-01-07T10:33:24Z</time></trkpt><trkpt lat="51.7687073350" lon="-1.8258769065"><ele>144.82</ele><time>2015-01-07T10:33:43Z</time></trkpt><trkpt lat="51.7688392662" lon="-1.8258137908"><ele>145.78</ele><time>2015-01-07T10:33:58Z</time></trkpt><trkpt lat="51.7688748892" lon="-1.8256993778"><ele>145.30</ele><time>2015-01-07T10:34:12Z</time></trkpt><trkpt lat="51.7689479794" lon="-1.8257428799"><ele>145.30</ele><time>2015-01-07T10:34:28Z</time></trkpt><trkpt lat="51.7691138573" lon="-1.8256361783"><ele>145.78</ele><time>2015-01-07T10:34:46Z</time></trkpt><trkpt lat="51.7692703474" lon="-1.8255238608"><ele>145.78</ele><time>2015-01-07T10:35:02Z</time></trkpt><trkpt lat="51.7694490496" lon="-1.8254547939"><ele>145.30</ele><time>2015-01-07T10:35:20Z</time></trkpt><trkpt lat="51.7695022747" lon="-1.8254594039"><ele>145.78</ele><time>2015-01-07T10:35:25Z</time></trkpt><trkpt lat="51.7696694098" lon="-1.8255478330"><ele>145.78</ele><time>2015-01-07T10:35:42Z</time></trkpt><trkpt lat="51.7698173504" lon="-1.8256272096"><ele>146.26</ele><time>2015-01-07T10:36:00Z</time></trkpt><trkpt lat="51.7699102219" lon="-1.8256807700"><ele>146.26</ele><time>2015-01-07T10:36:15Z</time></trkpt><trkpt lat="51.7699235491" lon="-1.8256735615"><ele>146.74</ele><time>2015-01-07T10:36:34Z</time></trkpt><trkpt lat="51.7699438334" lon="-1.8256234378"><ele>146.26</ele><time>2015-01-07T10:36:38Z</time></trkpt><trkpt lat="51.7701024190" lon="-1.8254333362"><ele>147.22</ele><time>2015-01-07T10:36:58Z</time></trkpt><trkpt lat="51.7702468392" lon="-1.8252878264"><ele>147.22</ele><time>2015-01-07T10:37:15Z</time></trkpt><trkpt lat="51.7704071850" lon="-1.8251205236"><ele>147.70</ele><time>2015-01-07T10:37:31Z</time></trkpt><trkpt lat="51.7705872282" lon="-1.8249595072"><ele>148.18</ele><time>2015-01-07T10:37:48Z</time></trkpt><trkpt lat="51.7707876395" lon="-1.8247781228"><ele>148.18</ele><time>2015-01-07T10:38:05Z</time></trkpt><trkpt lat="51.7709574569" lon="-1.8246067967"><ele>148.66</ele><time>2015-01-07T10:38:22Z</time></trkpt><trkpt lat="51.7711375002" lon="-1.8244078103"><ele>149.62</ele><time>2015-01-07T10:38:40Z</time></trkpt><trkpt lat="51.7712921463" lon="-1.8242240790"><ele>149.62</ele><time>2015-01-07T10:38:57Z</time></trkpt><trkpt lat="51.7713460419" lon="-1.8241532519"><ele>150.58</ele><time>2015-01-07T10:39:04Z</time></trkpt><trkpt lat="51.7714327946" lon="-1.8240393419"><ele>150.58</ele><time>2015-01-07T10:39:18Z</time></trkpt><trkpt lat="51.7715490516" lon="-1.8239049800"><ele>151.06</ele><time>2015-01-07T10:39:32Z</time></trkpt><trkpt lat="51.7717072181" lon="-1.8237617332"><ele>151.06</ele><time>2015-01-07T10:39:50Z</time></trkpt><trkpt lat="51.7718485370" lon="-1.8236447219"><ele>151.54</ele><time>2015-01-07T10:40:05Z</time></trkpt><trkpt lat="51.7719638720" lon="-1.8235759903"><ele>151.06</ele><time>2015-01-07T10:40:19Z</time></trkpt><trkpt lat="51.7720311787" lon="-1.8234692886"><ele>151.54</ele><time>2015-01-07T10:40:33Z</time></trkpt><trkpt lat="51.7720374651" lon="-1.8234623317"><ele>151.54</ele><time>2015-01-07T10:40:38Z</time></trkpt><trkpt lat="51.7720855772" lon="-1.8234257028"><ele>151.06</ele><time>2015-01-07T10:40:42Z</time></trkpt><trkpt lat="51.7722673807" lon="-1.8232953642"><ele>151.54</ele><time>2015-01-07T10:40:57Z</time></trkpt><trkpt lat="51.7722852342" lon="-1.8232756667"><ele>151.54</ele><time>2015-01-07T10:40:59Z</time></trkpt><trkpt lat="51.7724289838" lon="-1.8231113814"><ele>151.54</ele><time>2015-01-07T10:41:16Z</time></trkpt><trkpt lat="51.7724827118" lon="-1.8230555579"><ele>151.54</ele><time>2015-01-07T10:41:22Z</time></trkpt><trkpt lat="51.7726252880" lon="-1.8229047675"><ele>152.03</ele><time>2015-01-07T10:41:40Z</time></trkpt><trkpt lat="51.7727135494" lon="-1.8228185177"><ele>152.03</ele><time>2015-01-07T10:41:49Z</time></trkpt><trkpt lat="51.7727962788" lon="-1.8225769512"><ele>151.06</ele><time>2015-01-07T10:42:05Z</time></trkpt><trkpt lat="51.7729522660" lon="-1.8225365505"><ele>152.03</ele><time>2015-01-07T10:42:19Z</time></trkpt><trkpt lat="51.7730253562" lon="-1.8225370534"><ele>151.54</ele><time>2015-01-07T10:42:35Z</time></trkpt><trkpt lat="51.7730458919" lon="-1.8225034419"><ele>151.06</ele><time>2015-01-07T10:42:56Z</time></trkpt><trkpt lat="51.7730715405" lon="-1.8224262446"><ele>152.03</ele><time>2015-01-07T10:43:14Z</time></trkpt><trkpt lat="51.7731208261" lon="-1.8224061280"><ele>152.03</ele><time>2015-01-07T10:43:26Z</time></trkpt><trkpt lat="51.7731889710" lon="-1.8223850895"><ele>152.51</ele><time>2015-01-07T10:43:39Z</time></trkpt><trkpt lat="51.7732135300" lon="-1.8223699182"><ele>152.51</ele><time>2015-01-07T10:43:55Z</time></trkpt><trkpt lat="51.7733368278" lon="-1.8224026076"><ele>151.54</ele><time>2015-01-07T10:44:10Z</time></trkpt><trkpt lat="51.7735053040" lon="-1.8224309385"><ele>152.03</ele><time>2015-01-07T10:44:26Z</time></trkpt><trkpt lat="51.7736482993" lon="-1.8225031905"><ele>152.03</ele><time>2015-01-07T10:44:42Z</time></trkpt><trkpt lat="51.7736765463" lon="-1.8225231394"><ele>152.03</ele><time>2015-01-07T10:44:45Z</time></trkpt><trkpt lat="51.7737036198" lon="-1.8225522246"><ele>152.51</ele><time>2015-01-07T10:44:48Z</time></trkpt><trkpt lat="51.7738253251" lon="-1.8226596806"><ele>152.03</ele><time>2015-01-07T10:45:02Z</time></trkpt><trkpt lat="51.7739982437" lon="-1.8228361197"><ele>152.03</ele><time>2015-01-07T10:45:21Z</time></trkpt><trkpt lat="51.7741471902" lon="-1.8229802046"><ele>152.03</ele><time>2015-01-07T10:45:38Z</time></trkpt><trkpt lat="51.7743142415" lon="-1.8231436517"><ele>152.51</ele><time>2015-01-07T10:45:57Z</time></trkpt><trkpt lat="51.7744672112" lon="-1.8233089428"><ele>152.51</ele><time>2015-01-07T10:46:15Z</time></trkpt><trkpt lat="51.7746294010" lon="-1.8234718870"><ele>153.47</ele><time>2015-01-07T10:46:34Z</time></trkpt><trkpt lat="51.7747796047" lon="-1.8236088473"><ele>153.47</ele><time>2015-01-07T10:46:51Z</time></trkpt><trkpt lat="51.7749256175" lon="-1.8237370066"><ele>153.95</ele><time>2015-01-07T10:47:07Z</time></trkpt><trkpt lat="51.7750616558" lon="-1.8238603044"><ele>153.95</ele><time>2015-01-07T10:47:23Z</time></trkpt><trkpt lat="51.7750909086" lon="-1.8238855340"><ele>153.47</ele><time>2015-01-07T10:47:29Z</time></trkpt><trkpt lat="51.7751215026" lon="-1.8239250127"><ele>154.43</ele><time>2015-01-07T10:47:33Z</time></trkpt><trkpt lat="51.7752690241" lon="-1.8240874540"><ele>153.95</ele><time>2015-01-07T10:47:49Z</time></trkpt><trkpt lat="51.7754301243" lon="-1.8241717760"><ele>154.43</ele><time>2015-01-07T10:48:06Z</time></trkpt><trkpt lat="51.7755447887" lon="-1.8242945708"><ele>155.39</ele><time>2015-01-07T10:48:21Z</time></trkpt><trkpt lat="51.7756612971" lon="-1.8244186230"><ele>154.91</ele><time>2015-01-07T10:48:38Z</time></trkpt><trkpt lat="51.7758200504" lon="-1.8245358020"><ele>155.39</ele><time>2015-01-07T10:48:56Z</time></trkpt><trkpt lat="51.7760502174" lon="-1.8247695733"><ele>156.35</ele><time>2015-01-07T10:49:18Z</time></trkpt><trkpt lat="51.7762245610" lon="-1.8248409871"><ele>156.83</ele><time>2015-01-07T10:49:36Z</time></trkpt><trkpt lat="51.7762408219" lon="-1.8248481117"><ele>157.31</ele><time>2015-01-07T10:49:56Z</time></trkpt><trkpt lat="51.7763078772" lon="-1.8248458486"><ele>157.31</ele><time>2015-01-07T10:50:12Z</time></trkpt><trkpt lat="51.7765085399" lon="-1.8248851597"><ele>158.75</ele><time>2015-01-07T10:50:31Z</time></trkpt><trkpt lat="51.7766843922" lon="-1.8249493651"><ele>158.75</ele><time>2015-01-07T10:50:48Z</time></trkpt><trkpt lat="51.7768363561" lon="-1.8250126485"><ele>158.27</ele><time>2015-01-07T10:51:05Z</time></trkpt><trkpt lat="51.7769876495" lon="-1.8250859901"><ele>157.79</ele><time>2015-01-07T10:51:22Z</time></trkpt><trkpt lat="51.7770320736" lon="-1.8251193501"><ele>157.79</ele><time>2015-01-07T10:51:27Z</time></trkpt><trkpt lat="51.7771920841" lon="-1.8252169155"><ele>157.79</ele><time>2015-01-07T10:51:44Z</time></trkpt><trkpt lat="51.7773141246" lon="-1.8253304064"><ele>158.27</ele><time>2015-01-07T10:51:58Z</time></trkpt><trkpt lat="51.7774439603" lon="-1.8254680373"><ele>158.75</ele><time>2015-01-07T10:52:13Z</time></trkpt><trkpt lat="51.7775633186" lon="-1.8256488349"><ele>158.75</ele><time>2015-01-07T10:52:28Z</time></trkpt><trkpt lat="51.7776628956" lon="-1.8258367572"><ele>158.27</ele><time>2015-01-07T10:52:44Z</time></trkpt><trkpt lat="51.7777522467" lon="-1.8260002881"><ele>158.27</ele><time>2015-01-07T10:52:58Z</time></trkpt><trkpt lat="51.7779007740" lon="-1.8262198940"><ele>157.79</ele><time>2015-01-07T10:53:14Z</time></trkpt><trkpt lat="51.7779858503" lon="-1.8263807427"><ele>156.83</ele><time>2015-01-07T10:53:28Z</time></trkpt><trkpt lat="51.7780896183" lon="-1.8264813256"><ele>156.83</ele><time>2015-01-07T10:53:39Z</time></trkpt><trkpt lat="51.7782772891" lon="-1.8265845906"><ele>155.87</ele><time>2015-01-07T10:53:53Z</time></trkpt><trkpt lat="51.7784239724" lon="-1.8266598601"><ele>154.91</ele><time>2015-01-07T10:54:07Z</time></trkpt><trkpt lat="51.7785149999" lon="-1.8267207965"><ele>154.91</ele><time>2015-01-07T10:54:20Z</time></trkpt><trkpt lat="51.7786263116" lon="-1.8268308509"><ele>154.91</ele><time>2015-01-07T10:54:35Z</time></trkpt><trkpt lat="51.7787737492" lon="-1.8269804679"><ele>153.95</ele><time>2015-01-07T10:54:50Z</time></trkpt><trkpt lat="51.7788222805" lon="-1.8269913644"><ele>154.43</ele><time>2015-01-07T10:54:52Z</time></trkpt><trkpt lat="51.7788499407" lon="-1.8269993272"><ele>154.91</ele><time>2015-01-07T10:54:54Z</time></trkpt><trkpt lat="51.7788779363" lon="-1.8270260654"><ele>154.43</ele><time>2015-01-07T10:54:57Z</time></trkpt><trkpt lat="51.7790885735" lon="-1.8271071184"><ele>153.95</ele><time>2015-01-07T10:55:16Z</time></trkpt><trkpt lat="51.7792844586" lon="-1.8271900993"><ele>153.47</ele><time>2015-01-07T10:55:34Z</time></trkpt><trkpt lat="51.7793923337" lon="-1.8272252195"><ele>154.43</ele><time>2015-01-07T10:55:49Z</time></trkpt><trkpt lat="51.7794213351" lon="-1.8272370379"><ele>153.95</ele><time>2015-01-07T10:56:05Z</time></trkpt><trkpt lat="51.7794551980" lon="-1.8272262253"><ele>154.43</ele><time>2015-01-07T10:56:20Z</time></trkpt><trkpt lat="51.7794569582" lon="-1.8272230402"><ele>154.43</ele><time>2015-01-07T10:56:42Z</time></trkpt><trkpt lat="51.7794719618" lon="-1.8272183463"><ele>153.95</ele><time>2015-01-07T10:57:07Z</time></trkpt><trkpt lat="51.7794759851" lon="-1.8272124790"><ele>153.47</ele><time>2015-01-07T10:57:28Z</time></trkpt><trkpt lat="51.7795941699" lon="-1.8272747565"><ele>153.95</ele><time>2015-01-07T10:57:41Z</time></trkpt><trkpt lat="51.7796450481" lon="-1.8273724895"><ele>153.47</ele><time>2015-01-07T10:57:51Z</time></trkpt><trkpt lat="51.7796652485" lon="-1.8273770157"><ele>153.47</ele><time>2015-01-07T10:57:53Z</time></trkpt><trkpt lat="51.7798156198" lon="-1.8275151495"><ele>153.47</ele><time>2015-01-07T10:58:10Z</time></trkpt><trkpt lat="51.7799545079" lon="-1.8276964501"><ele>152.99</ele><time>2015-01-07T10:58:27Z</time></trkpt><trkpt lat="51.7801137641" lon="-1.8278496712"><ele>153.47</ele><time>2015-01-07T10:58:43Z</time></trkpt><trkpt lat="51.7802330386" lon="-1.8279646710"><ele>154.43</ele><time>2015-01-07T10:58:56Z</time></trkpt><trkpt lat="51.7803855054" lon="-1.8281494081"><ele>154.91</ele><time>2015-01-07T10:59:14Z</time></trkpt><trkpt lat="51.7805339489" lon="-1.8283381686"><ele>156.35</ele><time>2015-01-07T10:59:31Z</time></trkpt><trkpt lat="51.7806983180" lon="-1.8285864405"><ele>156.83</ele><time>2015-01-07T10:59:51Z</time></trkpt><trkpt lat="51.7808108032" lon="-1.8288231455"><ele>157.31</ele><time>2015-01-07T11:00:07Z</time></trkpt><trkpt lat="51.7809357774" lon="-1.8290414102"><ele>157.79</ele><time>2015-01-07T11:00:24Z</time></trkpt><trkpt lat="51.7810774315" lon="-1.8293053564"><ele>158.75</ele><time>2015-01-07T11:00:43Z</time></trkpt><trkpt lat="51.7811946105" lon="-1.8294634391"><ele>158.27</ele><time>2015-01-07T11:00:58Z</time></trkpt><trkpt lat="51.7812907510" lon="-1.8296305742"><ele>158.27</ele><time>2015-01-07T11:01:12Z</time></trkpt><trkpt lat="51.7814066727" lon="-1.8298246991"><ele>158.27</ele><time>2015-01-07T11:01:28Z</time></trkpt><trkpt lat="51.7814330757" lon="-1.8298683688"><ele>159.72</ele><time>2015-01-07T11:01:41Z</time></trkpt><trkpt lat="51.7814176530" lon="-1.8298570532"><ele>159.24</ele><time>2015-01-07T11:02:01Z</time></trkpt><trkpt lat="51.7814139649" lon="-1.8298459053"><ele>159.72</ele><time>2015-01-07T11:02:27Z</time></trkpt><trkpt lat="51.7814174853" lon="-1.8299798481"><ele>158.75</ele><time>2015-01-07T11:02:48Z</time></trkpt><trkpt lat="51.7814403679" lon="-1.8300757371"><ele>159.72</ele><time>2015-01-07T11:03:02Z</time></trkpt><trkpt lat="51.7814972810" lon="-1.8301717937"><ele>160.68</ele><time>2015-01-07T11:03:16Z</time></trkpt><trkpt lat="51.7814966943" lon="-1.8301753141"><ele>160.68</ele><time>2015-01-07T11:03:34Z</time></trkpt><trkpt lat="51.7815264501" lon="-1.8302804232"><ele>159.72</ele><time>2015-01-07T11:03:50Z</time></trkpt><trkpt lat="51.7815807648" lon="-1.8303884659"><ele>160.68</ele><time>2015-01-07T11:04:03Z</time></trkpt><trkpt lat="51.7815699521" lon="-1.8304202333"><ele>160.20</ele><time>2015-01-07T11:04:13Z</time></trkpt><trkpt lat="51.7815619055" lon="-1.8303872924"><ele>158.75</ele><time>2015-01-07T11:04:28Z</time></trkpt><trkpt lat="51.7815659288" lon="-1.8303838558"><ele>160.68</ele><time>2015-01-07T11:04:57Z</time></trkpt><trkpt lat="51.7815635819" lon="-1.8303799164"><ele>159.24</ele><time>2015-01-07T11:05:01Z</time></trkpt><trkpt lat="51.7815619893" lon="-1.8303785753"><ele>158.75</ele><time>2015-01-07T11:05:13Z</time></trkpt><trkpt lat="51.7815603968" lon="-1.8303806707"><ele>161.16</ele><time>2015-01-07T11:05:39Z</time></trkpt><trkpt lat="51.7815622408" lon="-1.8303767312"><ele>160.20</ele><time>2015-01-07T11:05:58Z</time></trkpt><trkpt lat="51.7815578822" lon="-1.8303747196"><ele>160.20</ele><time>2015-01-07T11:06:20Z</time></trkpt><trkpt lat="51.7815455608" lon="-1.8304041401"><ele>161.16</ele><time>2015-01-07T11:06:49Z</time></trkpt><trkpt lat="51.7815412860" lon="-1.8303456344"><ele>160.68</ele><time>2015-01-07T11:07:03Z</time></trkpt><trkpt lat="51.7815474048" lon="-1.8303588778"><ele>160.68</ele><time>2015-01-07T11:07:27Z</time></trkpt><trkpt lat="51.7815501709" lon="-1.8303684331"><ele>159.72</ele><time>2015-01-07T11:07:40Z</time></trkpt><trkpt lat="51.7815595586" lon="-1.8303680141"><ele>159.24</ele><time>2015-01-07T11:08:07Z</time></trkpt><trkpt lat="51.7815665156" lon="-1.8303928245"><ele>160.20</ele><time>2015-01-07T11:08:25Z</time></trkpt><trkpt lat="51.7815591395" lon="-1.8304051459"><ele>160.68</ele><time>2015-01-07T11:08:53Z</time></trkpt><trkpt lat="51.7815504223" lon="-1.8303632364"><ele>160.20</ele><time>2015-01-07T11:09:11Z</time></trkpt><trkpt lat="51.7815579660" lon="-1.8303578719"><ele>160.68</ele><time>2015-01-07T11:09:45Z</time></trkpt><trkpt lat="51.7815619893" lon="-1.8303550221"><ele>159.72</ele><time>2015-01-07T11:10:17Z</time></trkpt><trkpt lat="51.7815616541" lon="-1.8303566147"><ele>159.72</ele><time>2015-01-07T11:10:47Z</time></trkpt><trkpt lat="51.7815600615" lon="-1.8303576205"><ele>160.68</ele><time>2015-01-07T11:11:11Z</time></trkpt><trkpt lat="51.7815591395" lon="-1.8303568661"><ele>159.24</ele><time>2015-01-07T11:11:42Z</time></trkpt><trkpt lat="51.7815598939" lon="-1.8303635716"><ele>160.68</ele><time>2015-01-07T11:12:08Z</time></trkpt><trkpt lat="51.7815577984" lon="-1.8303793296"><ele>160.68</ele><time>2015-01-07T11:12:26Z</time></trkpt><trkpt lat="51.7815569602" lon="-1.8303777371"><ele>159.72</ele><time>2015-01-07T11:12:45Z</time></trkpt><trkpt lat="51.7815588880" lon="-1.8303807545"><ele>165.00</ele><time>2015-01-07T11:12:51Z</time></trkpt><trkpt lat="51.7815589719" lon="-1.8303808384"><ele>160.20</ele><time>2015-01-07T11:12:52Z</time></trkpt><trkpt lat="51.7815592233" lon="-1.8303810898"><ele>161.16</ele><time>2015-01-07T11:13:00Z</time></trkpt><trkpt lat="51.7815422080" lon="-1.8303894717"><ele>160.20</ele><time>2015-01-07T11:13:26Z</time></trkpt><trkpt lat="51.7814292200" lon="-1.8304568622"><ele>159.24</ele><time>2015-01-07T11:13:41Z</time></trkpt><trkpt lat="51.7813341692" lon="-1.8305476382"><ele>159.72</ele><time>2015-01-07T11:13:54Z</time></trkpt><trkpt lat="51.7812948581" lon="-1.8305924814"><ele>158.75</ele><time>2015-01-07T11:14:06Z</time></trkpt><trkpt lat="51.7812461592" lon="-1.8306505680"><ele>161.16</ele><time>2015-01-07T11:14:19Z</time></trkpt><trkpt lat="51.7812376097" lon="-1.8306886218"><ele>158.27</ele><time>2015-01-07T11:14:36Z</time></trkpt><trkpt lat="51.7811688781" lon="-1.8307731953"><ele>158.75</ele><time>2015-01-07T11:14:45Z</time></trkpt><trkpt lat="51.7811010685" lon="-1.8308646418"><ele>159.24</ele><time>2015-01-07T11:14:53Z</time></trkpt><trkpt lat="51.7810289841" lon="-1.8309889454"><ele>156.35</ele><time>2015-01-07T11:15:02Z</time></trkpt><trkpt lat="51.7809584923" lon="-1.8310679868"><ele>159.24</ele><time>2015-01-07T11:15:08Z</time></trkpt><trkpt lat="51.7809449974" lon="-1.8310985807"><ele>160.20</ele><time>2015-01-07T11:15:10Z</time></trkpt><trkpt lat="51.7808527965" lon="-1.8313052785"><ele>160.68</ele><time>2015-01-07T11:15:25Z</time></trkpt><trkpt lat="51.7808366194" lon="-1.8313497026"><ele>159.72</ele><time>2015-01-07T11:15:34Z</time></trkpt><trkpt lat="51.7807214521" lon="-1.8315563165"><ele>161.16</ele><time>2015-01-07T11:15:49Z</time></trkpt><trkpt lat="51.7806028482" lon="-1.8317449931"><ele>160.68</ele><time>2015-01-07T11:16:02Z</time></trkpt><trkpt lat="51.7805852462" lon="-1.8317737430"><ele>159.24</ele><time>2015-01-07T11:16:04Z</time></trkpt><trkpt lat="51.7804572545" lon="-1.8319665268"><ele>161.64</ele><time>2015-01-07T11:16:17Z</time></trkpt><trkpt lat="51.7803254072" lon="-1.8321780860"><ele>160.68</ele><time>2015-01-07T11:16:32Z</time></trkpt><trkpt lat="51.7803176120" lon="-1.8321904913"><ele>162.12</ele><time>2015-01-07T11:16:33Z</time></trkpt><trkpt lat="51.7801774666" lon="-1.8324148748"><ele>162.12</ele><time>2015-01-07T11:16:49Z</time></trkpt><trkpt lat="51.7801365629" lon="-1.8324858695"><ele>162.60</ele><time>2015-01-07T11:16:54Z</time></trkpt><trkpt lat="51.7800077330" lon="-1.8326727860"><ele>162.60</ele><time>2015-01-07T11:17:08Z</time></trkpt><trkpt lat="51.7799879517" lon="-1.8327027094"><ele>162.60</ele><time>2015-01-07T11:17:10Z</time></trkpt><trkpt lat="51.7799720261" lon="-1.8327343930"><ele>160.68</ele><time>2015-01-07T11:17:12Z</time></trkpt><trkpt lat="51.7798390053" lon="-1.8329630513"><ele>163.08</ele><time>2015-01-07T11:17:28Z</time></trkpt><trkpt lat="51.7798115965" lon="-1.8330075592"><ele>163.08</ele><time>2015-01-07T11:17:31Z</time></trkpt><trkpt lat="51.7797925696" lon="-1.8330532406"><ele>161.64</ele><time>2015-01-07T11:17:34Z</time></trkpt><trkpt lat="51.7796871252" lon="-1.8332223035"><ele>163.56</ele><time>2015-01-07T11:17:48Z</time></trkpt><trkpt lat="51.7796395998" lon="-1.8333016802"><ele>162.12</ele><time>2015-01-07T11:17:55Z</time></trkpt><trkpt lat="51.7795347422" lon="-1.8334712461"><ele>162.60</ele><time>2015-01-07T11:18:10Z</time></trkpt><trkpt lat="51.7795228399" lon="-1.8335010856"><ele>163.08</ele><time>2015-01-07T11:18:13Z</time></trkpt><trkpt lat="51.7795064952" lon="-1.8335396424"><ele>163.08</ele><time>2015-01-07T11:18:16Z</time></trkpt><trkpt lat="51.7793851253" lon="-1.8337113038"><ele>162.12</ele><time>2015-01-07T11:18:31Z</time></trkpt><trkpt lat="51.7792816926" lon="-1.8338354398"><ele>162.60</ele><time>2015-01-07T11:18:43Z</time></trkpt><trkpt lat="51.7792131286" lon="-1.8339537084"><ele>164.52</ele><time>2015-01-07T11:18:53Z</time></trkpt><trkpt lat="51.7792017292" lon="-1.8339734897"><ele>162.12</ele><time>2015-01-07T11:18:55Z</time></trkpt><trkpt lat="51.7791219335" lon="-1.8340983801"><ele>161.16</ele><time>2015-01-07T11:19:06Z</time></trkpt><trkpt lat="51.7790315766" lon="-1.8342525233"><ele>163.08</ele><time>2015-01-07T11:19:19Z</time></trkpt><trkpt lat="51.7789957020" lon="-1.8343049940"><ele>161.64</ele><time>2015-01-07T11:19:23Z</time></trkpt><trkpt lat="51.7789364420" lon="-1.8343978655"><ele>160.68</ele><time>2015-01-07T11:19:31Z</time></trkpt><trkpt lat="51.7789211869" lon="-1.8344265316"><ele>161.64</ele><time>2015-01-07T11:19:33Z</time></trkpt><trkpt lat="51.7788848095" lon="-1.8344759848"><ele>163.08</ele><time>2015-01-07T11:19:37Z</time></trkpt><trkpt lat="51.7788497731" lon="-1.8345433753"><ele>161.64</ele><time>2015-01-07T11:19:43Z</time></trkpt><trkpt lat="51.7787119746" lon="-1.8347507436"><ele>161.16</ele><time>2015-01-07T11:19:59Z</time></trkpt><trkpt lat="51.7786672991" lon="-1.8347766437"><ele>165.00</ele><time>2015-01-07T11:20:05Z</time></trkpt><trkpt lat="51.7786657065" lon="-1.8347777333"><ele>165.00</ele><time>2015-01-07T11:20:06Z</time></trkpt><trkpt lat="51.7786602583" lon="-1.8347861152"><ele>162.12</ele><time>2015-01-07T11:20:16Z</time></trkpt><trkpt lat="51.7785829771" lon="-1.8349333014"><ele>161.64</ele><time>2015-01-07T11:20:30Z</time></trkpt><trkpt lat="51.7785692308" lon="-1.8349576090"><ele>161.16</ele><time>2015-01-07T11:20:32Z</time></trkpt><trkpt lat="51.7784816399" lon="-1.8351276778"><ele>160.20</ele><time>2015-01-07T11:20:44Z</time></trkpt><trkpt lat="51.7783777881" lon="-1.8352942262"><ele>160.20</ele><time>2015-01-07T11:20:58Z</time></trkpt><trkpt lat="51.7782514729" lon="-1.8354950566"><ele>160.68</ele><time>2015-01-07T11:21:13Z</time></trkpt><trkpt lat="51.7781951465" lon="-1.8355954718"><ele>163.08</ele><time>2015-01-07T11:21:23Z</time></trkpt><trkpt lat="51.7781773768" lon="-1.8356121518"><ele>161.64</ele><time>2015-01-07T11:21:31Z</time></trkpt><trkpt lat="51.7781627923" lon="-1.8356346991"><ele>162.12</ele><time>2015-01-07T11:21:33Z</time></trkpt><trkpt lat="51.7780476250" lon="-1.8358130660"><ele>161.16</ele><time>2015-01-07T11:21:49Z</time></trkpt><trkpt lat="51.7780449428" lon="-1.8358186819"><ele>163.08</ele><time>2015-01-07T11:21:51Z</time></trkpt><trkpt lat="51.7780347168" lon="-1.8358333502"><ele>161.64</ele><time>2015-01-07T11:21:55Z</time></trkpt><trkpt lat="51.7779202200" lon="-1.8360289838"><ele>160.68</ele><time>2015-01-07T11:22:13Z</time></trkpt><trkpt lat="51.7778186314" lon="-1.8361675367"><ele>163.08</ele><time>2015-01-07T11:22:28Z</time></trkpt><trkpt lat="51.7778198048" lon="-1.8361669499"><ele>164.04</ele><time>2015-01-07T11:22:30Z</time></trkpt><trkpt lat="51.7778165359" lon="-1.8362000585"><ele>162.60</ele><time>2015-01-07T11:22:41Z</time></trkpt><trkpt lat="51.7777911387" lon="-1.8362547085"><ele>161.64</ele><time>2015-01-07T11:22:45Z</time></trkpt><trkpt lat="51.7777767219" lon="-1.8362911697"><ele>161.64</ele><time>2015-01-07T11:22:48Z</time></trkpt><trkpt lat="51.7777174618" lon="-1.8363738153"><ele>162.60</ele><time>2015-01-07T11:22:56Z</time></trkpt><trkpt lat="51.7777131032" lon="-1.8363842927"><ele>161.64</ele><time>2015-01-07T11:22:57Z</time></trkpt><trkpt lat="51.7776108440" lon="-1.8365467340"><ele>161.16</ele><time>2015-01-07T11:23:13Z</time></trkpt><trkpt lat="51.7775180563" lon="-1.8367044814"><ele>161.64</ele><time>2015-01-07T11:23:26Z</time></trkpt><trkpt lat="51.7774217483" lon="-1.8368694372"><ele>161.16</ele><time>2015-01-07T11:23:40Z</time></trkpt><trkpt lat="51.7773536034" lon="-1.8369661644"><ele>161.64</ele><time>2015-01-07T11:23:49Z</time></trkpt><trkpt lat="51.7773376778" lon="-1.8369906396"><ele>162.12</ele><time>2015-01-07T11:23:51Z</time></trkpt><trkpt lat="51.7772655934" lon="-1.8371208105"><ele>161.16</ele><time>2015-01-07T11:24:02Z</time></trkpt><trkpt lat="51.7772393581" lon="-1.8371556792"><ele>161.64</ele><time>2015-01-07T11:24:05Z</time></trkpt><trkpt lat="51.7771376856" lon="-1.8373077270"><ele>161.64</ele><time>2015-01-07T11:24:19Z</time></trkpt><trkpt lat="51.7770796828" lon="-1.8373964913"><ele>162.12</ele><time>2015-01-07T11:24:28Z</time></trkpt><trkpt lat="51.7769992165" lon="-1.8375394028"><ele>161.16</ele><time>2015-01-07T11:24:41Z</time></trkpt><trkpt lat="51.7768849712" lon="-1.8377272412"><ele>161.16</ele><time>2015-01-07T11:24:58Z</time></trkpt><trkpt lat="51.7767765932" lon="-1.8379030097"><ele>160.20</ele><time>2015-01-07T11:25:13Z</time></trkpt><trkpt lat="51.7766729929" lon="-1.8380610924"><ele>161.16</ele><time>2015-01-07T11:25:26Z</time></trkpt><trkpt lat="51.7765610944" lon="-1.8382508587"><ele>160.68</ele><time>2015-01-07T11:25:40Z</time></trkpt><trkpt lat="51.7764880043" lon="-1.8383736536"><ele>160.68</ele><time>2015-01-07T11:25:51Z</time></trkpt><trkpt lat="51.7763792071" lon="-1.8385412917"><ele>160.20</ele><time>2015-01-07T11:26:04Z</time></trkpt><trkpt lat="51.7762658000" lon="-1.8387072533"><ele>160.20</ele><time>2015-01-07T11:26:18Z</time></trkpt><trkpt lat="51.7761767842" lon="-1.8388608936"><ele>160.68</ele><time>2015-01-07T11:26:32Z</time></trkpt><trkpt lat="51.7761510517" lon="-1.8388950080"><ele>159.24</ele><time>2015-01-07T11:26:35Z</time></trkpt><trkpt lat="51.7760229763" lon="-1.8390948325"><ele>160.20</ele><time>2015-01-07T11:26:51Z</time></trkpt><trkpt lat="51.7760016024" lon="-1.8391323835"><ele>160.68</ele><time>2015-01-07T11:26:55Z</time></trkpt><trkpt lat="51.7759777978" lon="-1.8391680066"><ele>159.72</ele><time>2015-01-07T11:26:58Z</time></trkpt><trkpt lat="51.7758785561" lon="-1.8393261731"><ele>160.20</ele><time>2015-01-07T11:27:11Z</time></trkpt><trkpt lat="51.7757736985" lon="-1.8394976668"><ele>159.72</ele><time>2015-01-07T11:27:26Z</time></trkpt><trkpt lat="51.7756735347" lon="-1.8396808952"><ele>158.75</ele><time>2015-01-07T11:27:41Z</time></trkpt><trkpt lat="51.7755570263" lon="-1.8398727570"><ele>158.75</ele><time>2015-01-07T11:27:57Z</time></trkpt><trkpt lat="51.7754312977" lon="-1.8400719948"><ele>159.72</ele><time>2015-01-07T11:28:13Z</time></trkpt><trkpt lat="51.7753461376" lon="-1.8401983939"><ele>158.27</ele><time>2015-01-07T11:28:24Z</time></trkpt><trkpt lat="51.7753252666" lon="-1.8402275629"><ele>160.20</ele><time>2015-01-07T11:28:27Z</time></trkpt><trkpt lat="51.7752280366" lon="-1.8403846398"><ele>158.75</ele><time>2015-01-07T11:28:41Z</time></trkpt><trkpt lat="51.7751303874" lon="-1.8405366875"><ele>160.20</ele><time>2015-01-07T11:28:54Z</time></trkpt><trkpt lat="51.7750169802" lon="-1.8407310639"><ele>160.68</ele><time>2015-01-07T11:29:11Z</time></trkpt><trkpt lat="51.7748954426" lon="-1.8409172259"><ele>160.68</ele><time>2015-01-07T11:29:28Z</time></trkpt><trkpt lat="51.7747752462" lon="-1.8410705309"><ele>160.20</ele><time>2015-01-07T11:29:44Z</time></trkpt><trkpt lat="51.7746528704" lon="-1.8411840219"><ele>160.20</ele><time>2015-01-07T11:29:58Z</time></trkpt><trkpt lat="51.7746362742" lon="-1.8412070721"><ele>160.20</ele><time>2015-01-07T11:30:00Z</time></trkpt><trkpt lat="51.7745730747" lon="-1.8412879575"><ele>159.24</ele><time>2015-01-07T11:30:13Z</time></trkpt><trkpt lat="51.7744546384" lon="-1.8413863610"><ele>160.68</ele><time>2015-01-07T11:30:27Z</time></trkpt><trkpt lat="51.7743321788" lon="-1.8415166158"><ele>158.75</ele><time>2015-01-07T11:30:42Z</time></trkpt><trkpt lat="51.7742664646" lon="-1.8415823299"><ele>158.75</ele><time>2015-01-07T11:30:49Z</time></trkpt><trkpt lat="51.7742145807" lon="-1.8416211382"><ele>159.72</ele><time>2015-01-07T11:31:02Z</time></trkpt><trkpt lat="51.7742104735" lon="-1.8416272569"><ele>158.75</ele><time>2015-01-07T11:31:25Z</time></trkpt><trkpt lat="51.7741873395" lon="-1.8416517321"><ele>159.72</ele><time>2015-01-07T11:31:38Z</time></trkpt><trkpt lat="51.7741789576" lon="-1.8416647241"><ele>160.20</ele><time>2015-01-07T11:32:01Z</time></trkpt><trkpt lat="51.7741703242" lon="-1.8416621257"><ele>159.72</ele><time>2015-01-07T11:32:21Z</time></trkpt><trkpt lat="51.7741702404" lon="-1.8416614551"><ele>159.24</ele><time>2015-01-07T11:32:54Z</time></trkpt><trkpt lat="51.7741715815" lon="-1.8416643888"><ele>160.20</ele><time>2015-01-07T11:33:21Z</time></trkpt><trkpt lat="51.7741722520" lon="-1.8416623771"><ele>159.24</ele><time>2015-01-07T11:33:51Z</time></trkpt><trkpt lat="51.7741704918" lon="-1.8416608684"><ele>160.20</ele><time>2015-01-07T11:34:23Z</time></trkpt><trkpt lat="51.7741710786" lon="-1.8416609522"><ele>160.68</ele><time>2015-01-07T11:34:57Z</time></trkpt><trkpt lat="51.7741717491" lon="-1.8416652270"><ele>160.20</ele><time>2015-01-07T11:35:21Z</time></trkpt><trkpt lat="51.7741724197" lon="-1.8416712619"><ele>160.68</ele><time>2015-01-07T11:35:56Z</time></trkpt><trkpt lat="51.7741694022" lon="-1.8416750338"><ele>160.20</ele><time>2015-01-07T11:36:12Z</time></trkpt><trkpt lat="51.7740549892" lon="-1.8418121617"><ele>158.75</ele><time>2015-01-07T11:36:26Z</time></trkpt><trkpt lat="51.7739508860" lon="-1.8419341184"><ele>159.24</ele><time>2015-01-07T11:36:39Z</time></trkpt><trkpt lat="51.7738264147" lon="-1.8420819752"><ele>158.75</ele><time>2015-01-07T11:36:53Z</time></trkpt><trkpt lat="51.7737171985" lon="-1.8422031775"><ele>159.24</ele><time>2015-01-07T11:37:05Z</time></trkpt><trkpt lat="51.7735981755" lon="-1.8423282355"><ele>158.27</ele><time>2015-01-07T11:37:18Z</time></trkpt><trkpt lat="51.7734875344" lon="-1.8424460851"><ele>158.27</ele><time>2015-01-07T11:37:31Z</time></trkpt><trkpt lat="51.7733333912" lon="-1.8426189199"><ele>157.79</ele><time>2015-01-07T11:37:48Z</time></trkpt><trkpt lat="51.7732142843" lon="-1.8427526951"><ele>157.31</ele><time>2015-01-07T11:38:02Z</time></trkpt><trkpt lat="51.7730915733" lon="-1.8429035693"><ele>157.31</ele><time>2015-01-07T11:38:16Z</time></trkpt><trkpt lat="51.7730004620" lon="-1.8430044875"><ele>155.87</ele><time>2015-01-07T11:38:28Z</time></trkpt><trkpt lat="51.7730029766" lon="-1.8430340756"><ele>156.35</ele><time>2015-01-07T11:38:43Z</time></trkpt><trkpt lat="51.7730032280" lon="-1.8430330697"><ele>156.35</ele><time>2015-01-07T11:38:46Z</time></trkpt><trkpt lat="51.7729269527" lon="-1.8430989515"><ele>156.83</ele><time>2015-01-07T11:38:56Z</time></trkpt><trkpt lat="51.7728508450" lon="-1.8431755621"><ele>156.35</ele><time>2015-01-07T11:39:11Z</time></trkpt><trkpt lat="51.7727373540" lon="-1.8432952557"><ele>155.87</ele><time>2015-01-07T11:39:24Z</time></trkpt><trkpt lat="51.7726311553" lon="-1.8433799967"><ele>156.35</ele><time>2015-01-07T11:39:36Z</time></trkpt><trkpt lat="51.7725552153" lon="-1.8434861954"><ele>155.39</ele><time>2015-01-07T11:39:46Z</time></trkpt><trkpt lat="51.7725243699" lon="-1.8435142748"><ele>151.54</ele><time>2015-01-07T11:39:49Z</time></trkpt><trkpt lat="51.7725153174" lon="-1.8435222376"><ele>152.99</ele><time>2015-01-07T11:39:50Z</time></trkpt><trkpt lat="51.7723605037" lon="-1.8436800689"><ele>155.39</ele><time>2015-01-07T11:40:05Z</time></trkpt><trkpt lat="51.7722100485" lon="-1.8438706733"><ele>153.95</ele><time>2015-01-07T11:40:20Z</time></trkpt><trkpt lat="51.7720854934" lon="-1.8440331984"><ele>154.43</ele><time>2015-01-07T11:40:34Z</time></trkpt><trkpt lat="51.7720206175" lon="-1.8441135809"><ele>152.51</ele><time>2015-01-07T11:40:42Z</time></trkpt><trkpt lat="51.7719058692" lon="-1.8442699034"><ele>154.91</ele><time>2015-01-07T11:40:56Z</time></trkpt><trkpt lat="51.7718015984" lon="-1.8444051035"><ele>154.43</ele><time>2015-01-07T11:41:09Z</time></trkpt><trkpt lat="51.7717147619" lon="-1.8445033394"><ele>152.51</ele><time>2015-01-07T11:41:20Z</time></trkpt><trkpt lat="51.7717080563" lon="-1.8445111345"><ele>152.99</ele><time>2015-01-07T11:41:21Z</time></trkpt><trkpt lat="51.7716366425" lon="-1.8446110468"><ele>153.47</ele><time>2015-01-07T11:41:30Z</time></trkpt><trkpt lat="51.7715116683" lon="-1.8447792716"><ele>152.51</ele><time>2015-01-07T11:41:45Z</time></trkpt><trkpt lat="51.7714079842" lon="-1.8449001387"><ele>152.03</ele><time>2015-01-07T11:41:58Z</time></trkpt><trkpt lat="51.7713404261" lon="-1.8449955247"><ele>152.51</ele><time>2015-01-07T11:42:07Z</time></trkpt><trkpt lat="51.7712250073" lon="-1.8451536912"><ele>152.99</ele><time>2015-01-07T11:42:22Z</time></trkpt><trkpt lat="51.7711237539" lon="-1.8452819344"><ele>151.06</ele><time>2015-01-07T11:42:35Z</time></trkpt><trkpt lat="51.7709986120" lon="-1.8454293720"><ele>149.62</ele><time>2015-01-07T11:42:50Z</time></trkpt><trkpt lat="51.7709643301" lon="-1.8454786576"><ele>152.03</ele><time>2015-01-07T11:42:56Z</time></trkpt><trkpt lat="51.7709210794" lon="-1.8455214053"><ele>149.62</ele><time>2015-01-07T11:43:07Z</time></trkpt><trkpt lat="51.7707967758" lon="-1.8456722796"><ele>150.58</ele><time>2015-01-07T11:43:22Z</time></trkpt><trkpt lat="51.7706586421" lon="-1.8458192144"><ele>149.14</ele><time>2015-01-07T11:43:38Z</time></trkpt><trkpt lat="51.7705266271" lon="-1.8459638860"><ele>148.66</ele><time>2015-01-07T11:43:53Z</time></trkpt><trkpt lat="51.7704096157" lon="-1.8460902851"><ele>148.18</ele><time>2015-01-07T11:44:06Z</time></trkpt><trkpt lat="51.7702944484" lon="-1.8461990822"><ele>148.18</ele><time>2015-01-07T11:44:18Z</time></trkpt><trkpt lat="51.7702670395" lon="-1.8462273292"><ele>148.18</ele><time>2015-01-07T11:44:21Z</time></trkpt><trkpt lat="51.7701738328" lon="-1.8462920375"><ele>148.66</ele><time>2015-01-07T11:44:32Z</time></trkpt><trkpt lat="51.7700385489" lon="-1.8464350328"><ele>145.30</ele><time>2015-01-07T11:44:47Z</time></trkpt><trkpt lat="51.7699797079" lon="-1.8465043511"><ele>145.30</ele><time>2015-01-07T11:45:01Z</time></trkpt><trkpt lat="51.7698639538" lon="-1.8466228712"><ele>144.82</ele><time>2015-01-07T11:45:16Z</time></trkpt><trkpt lat="51.7697483674" lon="-1.8467155751"><ele>143.85</ele><time>2015-01-07T11:45:28Z</time></trkpt><trkpt lat="51.7696216330" lon="-1.8468522839"><ele>142.41</ele><time>2015-01-07T11:45:43Z</time></trkpt><trkpt lat="51.7695745267" lon="-1.8468866497"><ele>142.89</ele><time>2015-01-07T11:45:50Z</time></trkpt><trkpt lat="51.7695253249" lon="-1.8469298165"><ele>141.93</ele><time>2015-01-07T11:46:02Z</time></trkpt><trkpt lat="51.7695172783" lon="-1.8469394557"><ele>142.41</ele><time>2015-01-07T11:46:03Z</time></trkpt><trkpt lat="51.7693879455" lon="-1.8470776733"><ele>141.93</ele><time>2015-01-07T11:46:18Z</time></trkpt><trkpt lat="51.7693451140" lon="-1.8471080158"><ele>141.45</ele><time>2015-01-07T11:46:37Z</time></trkpt><trkpt lat="51.7693312000" lon="-1.8471436389"><ele>140.49</ele><time>2015-01-07T11:46:52Z</time></trkpt><trkpt lat="51.7692285217" lon="-1.8472335767"><ele>138.57</ele><time>2015-01-07T11:47:07Z</time></trkpt><trkpt lat="51.7691254243" lon="-1.8473421223"><ele>136.64</ele><time>2015-01-07T11:47:21Z</time></trkpt><trkpt lat="51.7689344846" lon="-1.8475215789"><ele>134.72</ele><time>2015-01-07T11:47:37Z</time></trkpt><trkpt lat="51.7688365839" lon="-1.8475836050"><ele>132.80</ele><time>2015-01-07T11:47:48Z</time></trkpt><trkpt lat="51.7687755637" lon="-1.8476100918"><ele>132.32</ele><time>2015-01-07T11:47:53Z</time></trkpt><trkpt lat="51.7686251923" lon="-1.8476924021"><ele>131.84</ele><time>2015-01-07T11:48:07Z</time></trkpt><trkpt lat="51.7686210014" lon="-1.8476925697"><ele>131.84</ele><time>2015-01-07T11:48:10Z</time></trkpt><trkpt lat="51.7684583087" lon="-1.8477598764"><ele>128.95</ele><time>2015-01-07T11:48:26Z</time></trkpt><trkpt lat="51.7683800217" lon="-1.8478021212"><ele>127.03</ele><time>2015-01-07T11:48:39Z</time></trkpt><trkpt lat="51.7683734838" lon="-1.8478071503"><ele>127.99</ele><time>2015-01-07T11:48:54Z</time></trkpt><trkpt lat="51.7682712246" lon="-1.8477417715"><ele>126.07</ele><time>2015-01-07T11:49:11Z</time></trkpt><trkpt lat="51.7682282254" lon="-1.8476951681"><ele>125.59</ele><time>2015-01-07T11:49:14Z</time></trkpt><trkpt lat="51.7681234516" lon="-1.8474172242"><ele>126.07</ele><time>2015-01-07T11:49:32Z</time></trkpt><trkpt lat="51.7681021616" lon="-1.8471345026"><ele>124.15</ele><time>2015-01-07T11:49:48Z</time></trkpt><trkpt lat="51.7680861522" lon="-1.8469847180"><ele>123.19</ele><time>2015-01-07T11:50:02Z</time></trkpt><trkpt lat="51.7680800334" lon="-1.8468728196"><ele>122.22</ele><time>2015-01-07T11:50:14Z</time></trkpt><trkpt lat="51.7680679634" lon="-1.8467661180"><ele>122.22</ele><time>2015-01-07T11:50:28Z</time></trkpt><trkpt lat="51.7679818813" lon="-1.8465667963"><ele>121.74</ele><time>2015-01-07T11:50:42Z</time></trkpt><trkpt lat="51.7679269798" lon="-1.8462645449"><ele>121.74</ele><time>2015-01-07T11:50:59Z</time></trkpt><trkpt lat="51.7679136526" lon="-1.8460919615"><ele>121.26</ele><time>2015-01-07T11:51:13Z</time></trkpt><trkpt lat="51.7678971402" lon="-1.8459194619"><ele>121.26</ele><time>2015-01-07T11:51:29Z</time></trkpt><trkpt lat="51.7678707372" lon="-1.8458025344"><ele>121.26</ele><time>2015-01-07T11:51:44Z</time></trkpt><trkpt lat="51.7678621039" lon="-1.8457972538"><ele>121.74</ele><time>2015-01-07T11:52:08Z</time></trkpt><trkpt lat="51.7678582482" lon="-1.8457939010"><ele>121.26</ele><time>2015-01-07T11:52:31Z</time></trkpt><trkpt lat="51.7678291630" lon="-1.8457830884"><ele>120.78</ele><time>2015-01-07T11:52:49Z</time></trkpt><trkpt lat="51.7678030115" lon="-1.8457661569"><ele>121.26</ele><time>2015-01-07T11:53:02Z</time></trkpt><trkpt lat="51.7678115610" lon="-1.8457823340"><ele>121.74</ele><time>2015-01-07T11:53:23Z</time></trkpt><trkpt lat="51.7678253073" lon="-1.8457424361"><ele>121.26</ele><time>2015-01-07T11:53:39Z</time></trkpt><trkpt lat="51.7677769437" lon="-1.8455237523"><ele>121.26</ele><time>2015-01-07T11:53:52Z</time></trkpt><trkpt lat="51.7677554861" lon="-1.8454070762"><ele>121.26</ele><time>2015-01-07T11:54:08Z</time></trkpt><trkpt lat="51.7677347828" lon="-1.8453074154"><ele>121.26</ele><time>2015-01-07T11:54:25Z</time></trkpt><trkpt lat="51.7676901910" lon="-1.8450934254"><ele>122.22</ele><time>2015-01-07T11:54:43Z</time></trkpt><trkpt lat="51.7676822282" lon="-1.8448799383"><ele>122.22</ele><time>2015-01-07T11:54:59Z</time></trkpt><trkpt lat="51.7675893568" lon="-1.8445995636"><ele>123.19</ele><time>2015-01-07T11:55:16Z</time></trkpt><trkpt lat="51.7675702460" lon="-1.8445403874"><ele>123.19</ele><time>2015-01-07T11:55:20Z</time></trkpt><trkpt lat="51.7674973235" lon="-1.8442827277"><ele>123.67</ele><time>2015-01-07T11:55:38Z</time></trkpt><trkpt lat="51.7674259935" lon="-1.8440982420"><ele>124.15</ele><time>2015-01-07T11:55:52Z</time></trkpt><trkpt lat="51.7673855089" lon="-1.8439702503"><ele>125.11</ele><time>2015-01-07T11:56:07Z</time></trkpt><trkpt lat="51.7673229799" lon="-1.8438675720"><ele>126.07</ele><time>2015-01-07T11:56:22Z</time></trkpt><trkpt lat="51.7671429366" lon="-1.8436083198"><ele>127.03</ele><time>2015-01-07T11:56:41Z</time></trkpt><trkpt lat="51.7670421023" lon="-1.8434550148"><ele>127.51</ele><time>2015-01-07T11:56:56Z</time></trkpt><trkpt lat="51.7669287790" lon="-1.8433011230"><ele>128.47</ele><time>2015-01-07T11:57:15Z</time></trkpt><trkpt lat="51.7667674273" lon="-1.8430912402"><ele>128.95</ele><time>2015-01-07T11:57:34Z</time></trkpt><trkpt lat="51.7666051537" lon="-1.8429045752"><ele>128.95</ele><time>2015-01-07T11:57:52Z</time></trkpt><trkpt lat="51.7664589733" lon="-1.8427935988"><ele>129.92</ele><time>2015-01-07T11:58:10Z</time></trkpt><trkpt lat="51.7663883977" lon="-1.8427467439"><ele>129.92</ele><time>2015-01-07T11:58:23Z</time></trkpt><trkpt lat="51.7662371043" lon="-1.8426780123"><ele>130.88</ele><time>2015-01-07T11:58:37Z</time></trkpt><trkpt lat="51.7661056761" lon="-1.8426373601"><ele>132.32</ele><time>2015-01-07T11:58:51Z</time></trkpt><trkpt lat="51.7659144010" lon="-1.8425744958"><ele>132.32</ele><time>2015-01-07T11:59:11Z</time></trkpt><trkpt lat="51.7656918615" lon="-1.8425132241"><ele>132.80</ele><time>2015-01-07T11:59:27Z</time></trkpt><trkpt lat="51.7655059509" lon="-1.8424226157"><ele>133.28</ele><time>2015-01-07T11:59:46Z</time></trkpt><trkpt lat="51.7653747741" lon="-1.8423622660"><ele>132.80</ele><time>2015-01-07T11:59:58Z</time></trkpt><trkpt lat="51.7652785499" lon="-1.8422716577"><ele>133.76</ele><time>2015-01-07T12:00:14Z</time></trkpt><trkpt lat="51.7651242390" lon="-1.8421476893"><ele>134.24</ele><time>2015-01-07T12:00:30Z</time></trkpt><trkpt lat="51.7650793958" lon="-1.8421099707"><ele>133.76</ele><time>2015-01-07T12:00:36Z</time></trkpt><trkpt lat="51.7649406753" lon="-1.8419932947"><ele>132.32</ele><time>2015-01-07T12:00:53Z</time></trkpt><trkpt lat="51.7648177966" lon="-1.8418582622"><ele>131.84</ele><time>2015-01-07T12:01:06Z</time></trkpt><trkpt lat="51.7647074908" lon="-1.8418031093"><ele>130.40</ele><time>2015-01-07T12:01:17Z</time></trkpt><trkpt lat="51.7646107636" lon="-1.8416907080"><ele>128.95</ele><time>2015-01-07T12:01:31Z</time></trkpt><trkpt lat="51.7644741386" lon="-1.8415422644"><ele>127.99</ele><time>2015-01-07T12:01:48Z</time></trkpt><trkpt lat="51.7643425427" lon="-1.8413790688"><ele>126.07</ele><time>2015-01-07T12:02:04Z</time></trkpt><trkpt lat="51.7642593104" lon="-1.8412984349"><ele>124.15</ele><time>2015-01-07T12:02:17Z</time></trkpt><trkpt lat="51.7641767487" lon="-1.8411774002"><ele>122.22</ele><time>2015-01-07T12:02:30Z</time></trkpt><trkpt lat="51.7640240304" lon="-1.8410047330"><ele>119.82</ele><time>2015-01-07T12:02:48Z</time></trkpt><trkpt lat="51.7638382874" lon="-1.8407279626"><ele>116.94</ele><time>2015-01-07T12:03:08Z</time></trkpt><trkpt lat="51.7637495231" lon="-1.8405946065"><ele>115.50</ele><time>2015-01-07T12:03:20Z</time></trkpt><trkpt lat="51.7636279017" lon="-1.8404987175"><ele>114.05</ele><time>2015-01-07T12:03:40Z</time></trkpt><trkpt lat="51.7635222897" lon="-1.8404198438"><ele>113.57</ele><time>2015-01-07T12:04:01Z</time></trkpt><trkpt lat="51.7633994110" lon="-1.8403520342"><ele>114.53</ele><time>2015-01-07T12:04:18Z</time></trkpt><trkpt lat="51.7631977424" lon="-1.8402255513"><ele>115.01</ele><time>2015-01-07T12:04:35Z</time></trkpt><trkpt lat="51.7630860116" lon="-1.8399508763"><ele>115.98</ele><time>2015-01-07T12:04:55Z</time></trkpt><trkpt lat="51.7629785556" lon="-1.8396700826"><ele>115.98</ele><time>2015-01-07T12:05:14Z</time></trkpt><trkpt lat="51.7628639750" lon="-1.8393848464"><ele>115.50</ele><time>2015-01-07T12:05:33Z</time></trkpt><trkpt lat="51.7627676670" lon="-1.8391224090"><ele>115.01</ele><time>2015-01-07T12:05:51Z</time></trkpt><trkpt lat="51.7627340555" lon="-1.8390461337"><ele>114.53</ele><time>2015-01-07T12:05:59Z</time></trkpt><trkpt lat="51.7627172079" lon="-1.8390141986"><ele>115.01</ele><time>2015-01-07T12:06:02Z</time></trkpt><trkpt lat="51.7625833489" lon="-1.8387917429"><ele>114.53</ele><time>2015-01-07T12:06:19Z</time></trkpt><trkpt lat="51.7624718696" lon="-1.8386728875"><ele>113.57</ele><time>2015-01-07T12:06:36Z</time></trkpt><trkpt lat="51.7624356598" lon="-1.8386124540"><ele>112.61</ele><time>2015-01-07T12:06:58Z</time></trkpt><trkpt lat="51.7623263597" lon="-1.8383872323"><ele>111.17</ele><time>2015-01-07T12:07:14Z</time></trkpt><trkpt lat="51.7621680256" lon="-1.8380170874"><ele>110.21</ele><time>2015-01-07T12:07:32Z</time></trkpt><trkpt lat="51.7621436343" lon="-1.8379196897"><ele>109.25</ele><time>2015-01-07T12:07:49Z</time></trkpt><trkpt lat="51.7620836198" lon="-1.8376536481"><ele>108.77</ele><time>2015-01-07T12:08:04Z</time></trkpt><trkpt lat="51.7620554566" lon="-1.8374247383"><ele>108.29</ele><time>2015-01-07T12:08:20Z</time></trkpt><trkpt lat="51.7620286345" lon="-1.8372591119"><ele>107.32</ele><time>2015-01-07T12:08:37Z</time></trkpt><trkpt lat="51.7619468272" lon="-1.8369508255"><ele>107.81</ele><time>2015-01-07T12:08:54Z</time></trkpt><trkpt lat="51.7618799396" lon="-1.8366958480"><ele>107.32</ele><time>2015-01-07T12:09:10Z</time></trkpt><trkpt lat="51.7618122138" lon="-1.8364492524"><ele>106.84</ele><time>2015-01-07T12:09:27Z</time></trkpt><trkpt lat="51.7616842221" lon="-1.8361687940"><ele>107.32</ele><time>2015-01-07T12:09:46Z</time></trkpt><trkpt lat="51.7616664525" lon="-1.8360964581"><ele>106.36</ele><time>2015-01-07T12:10:03Z</time></trkpt><trkpt lat="51.7616476770" lon="-1.8359621800"><ele>107.32</ele><time>2015-01-07T12:10:21Z</time></trkpt><trkpt lat="51.7615502793" lon="-1.8357855733"><ele>106.36</ele><time>2015-01-07T12:10:42Z</time></trkpt><trkpt lat="51.7615103815" lon="-1.8357362039"><ele>106.84</ele><time>2015-01-07T12:11:01Z</time></trkpt><trkpt lat="51.7614472657" lon="-1.8355298415"><ele>107.32</ele><time>2015-01-07T12:11:20Z</time></trkpt><trkpt lat="51.7613126524" lon="-1.8352987524"><ele>106.84</ele><time>2015-01-07T12:11:40Z</time></trkpt><trkpt lat="51.7611883488" lon="-1.8352625426"><ele>106.84</ele><time>2015-01-07T12:12:03Z</time></trkpt><trkpt lat="51.7609885242" lon="-1.8351376522"><ele>106.36</ele><time>2015-01-07T12:12:21Z</time></trkpt><trkpt lat="51.7608222272" lon="-1.8350928091"><ele>105.40</ele><time>2015-01-07T12:12:37Z</time></trkpt><trkpt lat="51.7608052120" lon="-1.8350948207"><ele>105.40</ele><time>2015-01-07T12:12:55Z</time></trkpt><trkpt lat="51.7607445270" lon="-1.8350877799"><ele>105.88</ele><time>2015-01-07T12:13:08Z</time></trkpt><trkpt lat="51.7607042938" lon="-1.8351021130"><ele>104.92</ele><time>2015-01-07T12:13:23Z</time></trkpt><trkpt lat="51.7606665753" lon="-1.8351529911"><ele>106.36</ele><time>2015-01-07T12:13:37Z</time></trkpt><trkpt lat="51.7606130149" lon="-1.8352475390"><ele>105.88</ele><time>2015-01-07T12:13:53Z</time></trkpt><trkpt lat="51.7605411820" lon="-1.8354207929"><ele>106.36</ele><time>2015-01-07T12:14:07Z</time></trkpt><trkpt lat="51.7605043016" lon="-1.8355735950"><ele>105.40</ele><time>2015-01-07T12:14:21Z</time></trkpt><trkpt lat="51.7604297027" lon="-1.8358303327"><ele>104.92</ele><time>2015-01-07T12:14:38Z</time></trkpt><trkpt lat="51.7604113463" lon="-1.8358689733"><ele>104.92</ele><time>2015-01-07T12:14:41Z</time></trkpt><trkpt lat="51.7603500746" lon="-1.8360543810"><ele>105.40</ele><time>2015-01-07T12:14:57Z</time></trkpt><trkpt lat="51.7602876294" lon="-1.8362376094"><ele>104.92</ele><time>2015-01-07T12:15:14Z</time></trkpt><trkpt lat="51.7603147868" lon="-1.8362703826"><ele>105.40</ele><time>2015-01-07T12:15:32Z</time></trkpt><trkpt lat="51.7603865359" lon="-1.8363001384"><ele>105.88</ele><time>2015-01-07T12:15:45Z</time></trkpt><trkpt lat="51.7604781501" lon="-1.8362457398"><ele>106.36</ele><time>2015-01-07T12:16:02Z</time></trkpt><trkpt lat="51.7604747973" lon="-1.8360392097"><ele>106.36</ele><time>2015-01-07T12:16:30Z</time></trkpt></trkseg><trkseg><trkpt lat="51.7605690099" lon="-1.8359729927"><ele>106.84</ele><time>2015-01-07T12:20:35Z</time></trkpt><trkpt lat="51.7606266774" lon="-1.8360688817"><ele>106.84</ele><time>2015-01-07T12:20:59Z</time></trkpt><trkpt lat="51.7606229894" lon="-1.8360573146"><ele>106.84</ele><time>2015-01-07T12:21:20Z</time></trkpt><trkpt lat="51.7605168745" lon="-1.8360157404"><ele>106.36</ele><time>2015-01-07T12:21:43Z</time></trkpt><trkpt lat="51.7604424432" lon="-1.8361755833"><ele>106.36</ele><time>2015-01-07T12:22:01Z</time></trkpt></trkseg><trkseg><trkpt lat="51.7605238315" lon="-1.8362345919"><ele>106.84</ele><time>2015-01-07T12:24:35Z</time></trkpt><trkpt lat="51.7603316344" lon="-1.8362604920"><ele>107.81</ele><time>2015-01-07T12:24:57Z</time></trkpt><trkpt lat="51.7602796666" lon="-1.8362558819"><ele>106.84</ele><time>2015-01-07T12:25:12Z</time></trkpt><trkpt lat="51.7602480669" lon="-1.8363504298"><ele>107.81</ele><time>2015-01-07T12:25:28Z</time></trkpt><trkpt lat="51.7602364160" lon="-1.8364132103"><ele>108.29</ele><time>2015-01-07T12:25:36Z</time></trkpt><trkpt lat="51.7601820175" lon="-1.8366203271"><ele>108.77</ele><time>2015-01-07T12:25:51Z</time></trkpt><trkpt lat="51.7600463144" lon="-1.8367699441"><ele>109.25</ele><time>2015-01-07T12:26:06Z</time></trkpt><trkpt lat="51.7598961107" lon="-1.8369193096"><ele>109.73</ele><time>2015-01-07T12:26:20Z</time></trkpt><trkpt lat="51.7598224338" lon="-1.8371353950"><ele>111.17</ele><time>2015-01-07T12:26:35Z</time></trkpt><trkpt lat="51.7597362678" lon="-1.8374042865"><ele>112.13</ele><time>2015-01-07T12:26:53Z</time></trkpt><trkpt lat="51.7596143950" lon="-1.8376670592"><ele>113.57</ele><time>2015-01-07T12:27:11Z</time></trkpt><trkpt lat="51.7595498543" lon="-1.8378548138"><ele>115.50</ele><time>2015-01-07T12:27:26Z</time></trkpt><trkpt lat="51.7595259659" lon="-1.8379423209"><ele>115.98</ele><time>2015-01-07T12:27:31Z</time></trkpt><trkpt lat="51.7594230361" lon="-1.8381436542"><ele>115.98</ele><time>2015-01-07T12:27:46Z</time></trkpt><trkpt lat="51.7594025843" lon="-1.8382295687"><ele>116.46</ele><time>2015-01-07T12:27:53Z</time></trkpt><trkpt lat="51.7592713237" lon="-1.8385298923"><ele>117.42</ele><time>2015-01-07T12:28:06Z</time></trkpt><trkpt lat="51.7592284922" lon="-1.8386966921"><ele>118.86</ele><time>2015-01-07T12:28:15Z</time></trkpt><trkpt lat="51.7590954714" lon="-1.8389684334"><ele>118.38</ele><time>2015-01-07T12:28:31Z</time></trkpt><trkpt lat="51.7589863390" lon="-1.8391322158"><ele>119.82</ele><time>2015-01-07T12:28:42Z</time></trkpt><trkpt lat="51.7589771189" lon="-1.8391336408"><ele>121.74</ele><time>2015-01-07T12:28:44Z</time></trkpt><trkpt lat="51.7589590978" lon="-1.8391546793"><ele>119.82</ele><time>2015-01-07T12:28:46Z</time></trkpt><trkpt lat="51.7588703334" lon="-1.8392809108"><ele>119.82</ele><time>2015-01-07T12:28:59Z</time></trkpt><trkpt lat="51.7587913759" lon="-1.8391993549"><ele>120.78</ele><time>2015-01-07T12:29:13Z</time></trkpt><trkpt lat="51.7587410007" lon="-1.8390674237"><ele>120.30</ele><time>2015-01-07T12:29:27Z</time></trkpt><trkpt lat="51.7587260809" lon="-1.8390421942"><ele>120.30</ele><time>2015-01-07T12:29:44Z</time></trkpt><trkpt lat="51.7586700898" lon="-1.8390105944"><ele>120.30</ele><time>2015-01-07T12:29:55Z</time></trkpt></trkseg></trk></gpx>